Time;durP1;ratioP1;P1;durP2;ratioP2;P2;SDS_P1;SDS_P2;PMS_P1;PMS_P2;Temp;Humidity;BMP_temperature;BMP_pressure;BME280_temperature;BME280_humidity;BME280_pressure;Samples;Min_cycle;Max_cycle;Signal;HPM_P1;HPM_P2
2022/05/16 00:01:05;;;;;;;4.53;2.13;;;14.90;99.90;;;;;;5072986;28;20233;-71
2022/05/16 00:03:30;;;;;;;8.80;2.95;;;15.10;99.90;;;;;;5090874;28;20206;-71
2022/05/16 00:05:56;;;;;;;6.10;2.80;;;15.00;99.90;;;;;;5091313;28;20254;-72
2022/05/16 00:08:22;;;;;;;5.40;2.35;;;14.90;99.90;;;;;;5090735;28;20211;-71
2022/05/16 00:10:48;;;;;;;5.57;2.20;;;14.80;99.90;;;;;;5091859;28;20202;-72
2022/05/16 00:13:13;;;;;;;8.80;2.40;;;14.90;99.90;;;;;;5095104;28;20194;-71
2022/05/16 00:15:39;;;;;;;8.48;2.90;;;14.80;99.90;;;;;;5094923;28;20301;-70
2022/05/16 00:18:05;;;;;;;7.80;2.85;;;14.80;99.90;;;;;;5094307;28;20579;-71
2022/05/16 00:20:30;;;;;;;5.63;2.50;;;14.70;99.90;;;;;;5076201;28;20221;-70
2022/05/16 00:22:56;;;;;;;10.23;3.22;;;14.60;99.90;;;;;;5064549;28;20236;-74
2022/05/16 00:25:22;;;;;;;7.20;2.53;;;14.60;99.90;;;;;;5094658;28;20273;-71
2022/05/16 00:27:47;;;;;;;9.52;2.72;;;14.50;99.90;;;;;;5094680;28;20202;-71
2022/05/16 00:30:17;;;;;;;5.57;2.58;;;14.60;99.90;;;;;;5076228;28;20210;-71
2022/05/16 00:32:42;;;;;;;3.67;2.13;;;14.60;99.90;;;;;;5094637;28;20179;-71
2022/05/16 00:35:10;;;;;;;6.63;2.40;;;14.70;99.90;;;;;;5077234;28;20231;-71
2022/05/16 00:37:36;;;;;;;7.38;2.72;;;14.70;99.90;;;;;;5094520;28;20236;-71
2022/05/16 00:40:02;;;;;;;4.90;2.40;;;14.70;99.90;;;;;;5093462;28;20218;-73
2022/05/16 00:42:28;;;;;;;8.45;2.58;;;14.50;99.90;;;;;;5076281;28;20242;-71
2022/05/16 00:44:53;;;;;;;6.95;2.50;;;14.50;99.90;;;;;;5094717;28;20234;-71
2022/05/16 00:47:19;;;;;;;7.05;2.83;;;14.60;99.90;;;;;;5095107;28;20249;-71
2022/05/16 00:49:49;;;;;;;7.57;2.90;;;14.60;99.90;;;;;;5093537;28;20672;-72
2022/05/16 00:52:19;;;;;;;7.72;3.75;;;14.60;99.90;;;;;;5083181;28;20285;-71
2022/05/16 00:54:50;;;;;;;11.30;4.25;;;14.60;99.90;;;;;;5094186;28;20248;-71
2022/05/16 00:57:20;;;;;;;10.10;5.43;;;14.60;99.90;;;;;;5094475;28;20210;-70
2022/05/16 01:00:10;;;;;;;10.65;5.95;;;14.50;99.90;;;;;;5093380;28;20205;-71
2022/05/16 01:05:23;;;;;;;8.52;5.68;;;14.40;99.90;;;;;;5094603;28;20177;-71
2022/05/16 01:07:48;;;;;;;9.13;5.53;;;14.50;99.90;;;;;;5093931;28;20194;-71
2022/05/16 01:10:18;;;;;;;8.10;4.63;;;14.40;99.90;;;;;;5093607;28;20248;-71
2022/05/16 01:12:46;;;;;;;7.43;4.43;;;14.30;99.90;;;;;;5075775;28;20209;-70
2022/05/16 01:15:16;;;;;;;8.10;4.17;;;14.30;99.90;;;;;;5094066;28;20210;-71
2022/05/16 01:17:42;;;;;;;8.90;4.40;;;14.30;99.90;;;;;;5075314;28;20576;-71
2022/05/16 01:20:09;;;;;;;6.33;3.87;;;14.30;99.90;;;;;;5093973;28;20202;-71
2022/05/16 01:22:43;;;;;;;8.80;3.33;;;14.40;99.90;;;;;;5062679;28;20655;-71
2022/05/16 01:25:28;;;;;;;5.90;3.00;;;14.30;99.90;;;;;;5093718;28;20202;-72
2022/05/16 01:28:04;;;;;;;6.13;3.20;;;14.20;99.90;;;;;;5093707;28;20234;-71
2022/05/16 01:30:32;;;;;;;7.00;3.75;;;14.20;99.90;;;;;;5093675;28;20753;-71
2022/05/16 01:32:58;;;;;;;8.83;3.50;;;14.10;99.90;;;;;;5093669;28;20209;-71
2022/05/16 01:35:29;;;;;;;4.85;2.97;;;14.10;99.90;;;;;;5093961;28;20174;-71
2022/05/16 01:40:40;;;;;;;8.57;2.60;;;14.10;99.90;;;;;;5093309;28;20228;-71
2022/05/16 01:43:07;;;;;;;6.13;2.77;;;14.00;99.90;;;;;;5093550;28;20282;-71
2022/05/16 01:45:32;;;;;;;5.47;2.90;;;14.00;99.90;;;;;;5093448;28;20217;-71
2022/05/16 01:47:58;;;;;;;8.73;2.80;;;14.00;99.90;;;;;;5093087;28;20206;-71
2022/05/16 01:50:24;;;;;;;5.10;2.50;;;14.00;99.90;;;;;;5075084;28;20576;-71
2022/05/16 01:52:49;;;;;;;7.57;2.70;;;14.10;99.90;;;;;;5080387;28;20217;-71
2022/05/16 01:55:15;;;;;;;4.20;2.80;;;14.00;99.90;;;;;;5093287;28;20202;-71
2022/05/16 01:57:41;;;;;;;7.95;2.42;;;14.00;99.90;;;;;;5092980;28;20214;-71
2022/05/16 02:00:10;;;;;;;6.53;2.37;;;14.10;99.90;;;;;;5092647;28;20601;-73
2022/05/16 02:02:37;;;;;;;4.95;2.70;;;14.10;99.90;;;;;;5092826;28;20239;-71
2022/05/16 02:05:03;;;;;;;4.53;2.40;;;14.00;99.90;;;;;;5075556;28;20224;-71
2022/05/16 02:07:28;;;;;;;5.67;2.93;;;14.00;99.90;;;;;;5074663;28;20202;-70
2022/05/16 02:09:54;;;;;;;7.80;3.20;;;14.00;99.90;;;;;;5074222;28;20207;-71
2022/05/16 02:12:20;;;;;;;4.95;2.80;;;14.00;99.90;;;;;;5093009;28;20210;-72
2022/05/16 02:14:45;;;;;;;6.93;2.40;;;14.00;99.90;;;;;;5092788;28;20182;-71
2022/05/16 02:17:11;;;;;;;4.37;2.20;;;13.90;99.90;;;;;;5091428;28;20220;-71
2022/05/16 02:19:36;;;;;;;6.57;2.13;;;13.90;99.90;;;;;;5091583;28;20779;-71
2022/05/16 02:24:46;;;;;;;4.70;2.23;;;13.90;99.90;;;;;;5076444;28;20293;-71
2022/05/16 02:27:16;;;;;;;4.70;2.20;;;13.90;99.90;;;;;;5074504;28;20285;-70
2022/05/16 02:29:41;;;;;;;6.47;2.87;;;13.80;99.90;;;;;;5073380;28;20593;-71
2022/05/16 02:32:08;;;;;;;9.90;2.60;;;13.80;99.90;;;;;;5075004;28;20171;-71
2022/05/16 02:34:33;;;;;;;7.70;2.33;;;13.90;99.90;;;;;;5077099;28;20204;-72
2022/05/16 02:36:59;;;;;;;11.07;2.33;;;13.80;99.90;;;;;;5061721;28;20259;-71
2022/05/16 02:39:25;;;;;;;9.48;2.72;;;13.80;99.90;;;;;;5067879;28;20760;-72
2022/05/16 02:41:51;;;;;;;4.77;2.43;;;13.90;99.90;;;;;;5071832;28;20211;-71
2022/05/16 02:44:16;;;;;;;4.67;1.80;;;13.80;99.90;;;;;;5054444;28;20273;-71
2022/05/16 02:46:43;;;;;;;4.37;2.50;;;13.80;99.90;;;;;;5071660;28;20679;-71
2022/05/16 02:49:09;;;;;;;8.70;2.23;;;13.80;99.90;;;;;;5071275;28;20214;-71
2022/05/16 02:51:35;;;;;;;6.40;2.60;;;13.80;99.90;;;;;;5071552;28;20203;-71
2022/05/16 02:54:00;;;;;;;7.17;2.50;;;13.80;99.90;;;;;;5053658;28;20241;-74
2022/05/16 02:56:26;;;;;;;6.77;2.53;;;13.80;99.90;;;;;;5072105;28;20167;-72
2022/05/16 02:58:51;;;;;;;7.37;3.13;;;13.80;99.90;;;;;;5070851;28;20199;-71
2022/05/16 03:01:17;;;;;;;10.07;2.40;;;13.80;99.90;;;;;;5071357;28;20222;-72
2022/05/16 03:03:43;;;;;;;7.53;2.50;;;13.70;99.90;;;;;;5053575;28;20209;-69
2022/05/16 03:06:10;;;;;;;7.93;2.70;;;13.70;99.90;;;;;;5053665;28;20699;-71
2022/05/16 03:08:37;;;;;;;5.27;2.47;;;13.70;99.90;;;;;;5070602;28;20658;-71
2022/05/16 03:11:03;;;;;;;6.80;3.10;;;13.80;99.90;;;;;;5071970;28;20195;-71
2022/05/16 03:13:28;;;;;;;10.57;2.60;;;13.70;99.90;;;;;;5053291;28;20207;-72
2022/05/16 03:15:54;;;;;;;6.20;2.87;;;13.60;99.90;;;;;;5071223;28;20249;-71
2022/05/16 03:18:19;;;;;;;8.00;2.57;;;13.70;99.90;;;;;;5070750;28;20649;-71
2022/05/16 03:20:45;;;;;;;8.80;2.60;;;13.70;99.90;;;;;;5070998;28;20317;-70
2022/05/16 03:23:10;;;;;;;4.87;2.30;;;13.70;99.90;;;;;;5071819;28;20185;-72
2022/05/16 03:25:37;;;;;;;4.67;2.53;;;13.80;99.90;;;;;;5070923;28;20222;-71
2022/05/16 03:28:02;;;;;;;4.57;2.50;;;13.80;99.90;;;;;;5070478;28;20195;-71
2022/05/16 03:30:28;;;;;;;10.83;2.70;;;13.80;99.90;;;;;;5070748;28;20215;-71
2022/05/16 03:32:54;;;;;;;8.20;2.93;;;13.90;99.90;;;;;;5071119;28;20199;-71
2022/05/16 03:35:19;;;;;;;6.87;2.23;;;13.90;99.90;;;;;;5071458;28;20183;-71
2022/05/16 03:37:45;;;;;;;8.57;2.77;;;13.90;99.90;;;;;;5067742;28;20209;-71
2022/05/16 03:42:55;;;;;;;8.70;2.63;;;14.00;99.90;;;;;;5063991;28;20222;-71
2022/05/16 03:45:21;;;;;;;7.97;3.17;;;14.60;99.90;;;;;;5070591;28;20203;-71
2022/05/16 03:47:47;;;;;;;5.95;2.70;;;14.80;99.90;;;;;;5070668;28;20167;-71
2022/05/16 03:50:13;;;;;;;5.27;3.00;;;14.50;99.90;;;;;;5053080;28;20191;-71
2022/05/16 03:52:40;;;;;;;5.55;2.45;;;14.60;99.90;;;;;;5070580;28;20260;-70
2022/05/16 03:55:13;;;;;;;4.53;2.35;;;15.00;99.90;;;;;;5070742;28;20706;-71
2022/05/16 03:57:39;;;;;;;4.95;2.53;;;15.80;99.90;;;;;;5070520;28;20214;-71
2022/05/16 04:00:09;;;;;;;5.95;2.28;;;16.60;99.90;;;;;;5069805;28;20225;-71
2022/05/16 04:02:39;;;;;;;5.45;2.55;;;17.50;99.90;;;;;;5052365;28;20175;-71
2022/05/16 04:05:06;;;;;;;5.05;2.17;;;18.60;99.90;;;;;;5071349;28;20179;-71
2022/05/16 04:07:31;;;;;;;14.77;2.85;;;19.20;99.90;;;;;;5067749;28;20290;-72
2022/05/16 04:09:57;;;;;;;6.97;2.65;;;19.00;99.90;;;;;;5069839;28;20281;-71
2022/05/16 04:12:22;;;;;;;9.48;2.90;;;19.50;99.90;;;;;;5052514;28;20680;-71
2022/05/16 04:14:49;;;;;;;8.23;2.58;;;19.30;99.90;;;;;;5052617;28;20242;-71
2022/05/16 04:17:14;;;;;;;3.67;2.35;;;20.20;99.90;;;;;;5071136;28;20249;-72
2022/05/16 04:19:40;;;;;;;6.53;2.58;;;20.10;99.90;;;;;;5069433;28;20429;-72
2022/05/16 04:22:05;;;;;;;6.47;3.00;;;19.70;99.90;;;;;;5070711;28;20199;-70
2022/05/16 04:24:31;;;;;;;4.70;2.53;;;20.70;99.90;;;;;;5052406;28;20275;-71
2022/05/16 04:26:56;;;;;;;3.78;2.30;;;20.90;99.90;;;;;;5070425;28;20203;-72
2022/05/16 04:29:22;;;;;;;7.40;2.58;;;21.50;99.90;;;;;;5052086;28;20225;-71
2022/05/16 04:31:50;;;;;;;5.28;2.60;;;21.10;99.90;;;;;;5052509;28;20206;-72
2022/05/16 04:34:15;;;;;;;7.22;2.83;;;21.00;99.90;;;;;;5070566;28;20672;-72
2022/05/16 04:36:41;;;;;;;8.13;2.80;;;19.10;99.90;;;;;;5052333;28;20213;-74
2022/05/16 04:39:06;;;;;;;6.32;2.72;;;19.50;99.90;;;;;;5066346;28;20210;-72
2022/05/16 04:44:16;;;;;;;7.60;2.70;;;21.30;99.90;;;;;;5065594;28;20190;-72
2022/05/16 04:46:42;;;;;;;6.15;2.55;;;22.40;99.90;;;;;;5088263;28;20202;-72
2022/05/16 04:49:08;;;;;;;8.65;3.08;;;23.40;99.90;;;;;;5089907;28;20760;-72
2022/05/16 04:51:33;;;;;;;8.35;2.80;;;22.70;99.90;;;;;;5090488;28;20222;-72
2022/05/16 04:53:59;;;;;;;7.68;2.83;;;22.60;99.90;;;;;;5090684;28;20213;-72
2022/05/16 04:56:24;;;;;;;5.13;2.63;;;23.30;99.90;;;;;;5091308;28;20171;-73
2022/05/16 04:58:50;;;;;;;6.07;3.22;;;23.50;99.90;;;;;;5093582;28;20825;-72
2022/05/16 05:01:15;;;;;;;7.60;2.85;;;24.10;99.90;;;;;;5094490;28;20309;-72
2022/05/16 05:03:42;;;;;;;6.45;2.92;;;24.60;99.90;;;;;;5094388;28;20645;-72
2022/05/16 05:06:08;;;;;;;4.40;2.72;;;24.40;99.90;;;;;;5094380;28;20624;-72
2022/05/16 05:08:34;;;;;;;8.38;2.58;;;23.50;99.90;;;;;;5093469;28;20183;-72
2022/05/16 05:16:42;;;;;;;6.93;3.22;;;23.40;99.90;;;;;;5027111;28;20206;-73
2022/05/16 05:19:08;;;;;;;13.23;9.57;;;24.40;99.90;;;;;;5093123;28;20281;-72
2022/05/16 05:21:33;;;;;;;6.85;2.88;;;23.90;99.90;;;;;;5093886;28;20202;-72
2022/05/16 05:23:59;;;;;;;6.22;2.65;;;24.50;99.90;;;;;;5093829;28;20297;-73
2022/05/16 05:26:24;;;;;;;6.57;2.67;;;24.20;99.90;;;;;;5075877;28;20606;-72
2022/05/16 05:28:50;;;;;;;7.32;2.92;;;24.00;99.90;;;;;;5092879;28;20336;-72
2022/05/16 05:31:18;;;;;;;6.03;2.97;;;23.90;99.90;;;;;;5093508;28;20199;-72
2022/05/16 05:33:44;;;;;;;6.15;2.35;;;23.90;99.90;;;;;;5093412;28;20213;-72
2022/05/16 05:36:10;;;;;;;7.35;3.00;;;22.50;99.90;;;;;;5093656;28;20198;-72
2022/05/16 05:38:36;;;;;;;7.50;3.20;;;23.80;99.90;;;;;;5092825;28;20208;-73
2022/05/16 05:41:06;;;;;;;7.60;3.60;;;24.20;99.90;;;;;;5114467;22;20225;-72
2022/05/16 05:43:32;;;;;;;7.57;2.70;;;23.80;99.90;;;;;;5112163;28;20236;-73
2022/05/16 05:45:57;;;;;;;7.47;2.80;;;23.60;99.90;;;;;;5106628;27;20701;-74
2022/05/16 05:48:23;;;;;;;6.60;2.97;;;24.00;99.90;;;;;;5113007;28;20208;-72
2022/05/16 05:50:49;;;;;;;9.43;3.28;;;25.30;98.60;;;;;;5113619;28;20209;-72
2022/05/16 05:53:14;;;;;;;7.47;3.20;;;24.60;98.40;;;;;;5114316;28;20170;-73
2022/05/16 05:55:40;;;;;;;4.93;2.20;;;25.30;97.90;;;;;;5113519;28;20210;-73
2022/05/16 05:58:06;;;;;;;5.32;3.05;;;25.20;96.70;;;;;;5112662;28;20198;-72
2022/05/16 06:00:31;;;;;;;5.32;2.63;;;25.10;96.90;;;;;;5113171;28;20725;-72
2022/05/16 06:02:58;;;;;;;6.30;2.63;;;24.90;96.60;;;;;;5113394;28;20210;-73
2022/05/16 06:05:23;;;;;;;7.57;2.97;;;25.60;96.60;;;;;;5113714;28;20169;-71
2022/05/16 06:07:49;;;;;;;6.22;3.15;;;25.00;96.20;;;;;;5112342;28;20697;-73
2022/05/16 06:10:15;;;;;;;5.55;2.80;;;26.30;95.20;;;;;;5112380;28;20603;-71
2022/05/16 06:12:40;;;;;;;9.98;7.30;;;24.60;95.10;;;;;;5111687;28;20789;-72
2022/05/16 06:15:07;;;;;;;9.80;5.55;;;24.40;96.80;;;;;;5104877;28;20704;-72
2022/05/16 06:17:35;;;;;;;9.00;3.40;;;24.60;96.40;;;;;;5112979;28;20707;-72
2022/05/16 06:20:01;;;;;;;5.45;2.75;;;24.20;96.60;;;;;;5111558;28;20310;-72
2022/05/16 06:22:29;;;;;;;6.72;3.25;;;24.00;96.90;;;;;;5113014;28;20742;-71
2022/05/16 06:27:39;;;;;;;11.68;3.65;;;26.60;95.20;;;;;;5112825;28;20281;-72
2022/05/16 06:30:05;;;;;;;11.40;4.30;;;26.90;92.90;;;;;;5112266;28;20292;-74
2022/05/16 06:32:30;;;;;;;9.75;3.28;;;26.10;93.00;;;;;;5112722;28;20253;-72
2022/05/16 06:34:56;;;;;;;7.80;3.90;;;25.30;93.80;;;;;;5113363;28;20726;-72
2022/05/16 06:37:21;;;;;;;7.53;2.85;;;26.40;93.20;;;;;;5112715;28;20208;-72
2022/05/16 06:39:47;;;;;;;6.95;3.03;;;27.40;91.90;;;;;;5111720;28;20213;-72
2022/05/16 06:42:12;;;;;;;7.65;3.40;;;27.10;91.70;;;;;;5112654;28;20583;-71
2022/05/16 06:44:39;;;;;;;7.15;3.22;;;27.10;90.50;;;;;;5104057;28;20559;-73
2022/05/16 06:47:05;;;;;;;7.97;3.55;;;27.90;90.60;;;;;;5113256;28;20282;-72
2022/05/16 06:49:31;;;;;;;7.97;2.67;;;28.20;88.50;;;;;;5111764;28;20205;-73
2022/05/16 06:51:56;;;;;;;5.25;2.78;;;26.70;88.90;;;;;;5112518;28;20208;-73
2022/05/16 06:54:22;;;;;;;4.95;2.42;;;25.90;90.10;;;;;;5110974;28;20209;-73
2022/05/16 06:56:47;;;;;;;6.80;2.90;;;27.30;90.50;;;;;;5112104;28;20209;-73
2022/05/16 06:59:13;;;;;;;6.68;2.60;;;28.10;87.40;;;;;;5111859;28;20170;-73
2022/05/16 07:01:39;;;;;;;9.50;3.00;;;27.00;88.60;;;;;;5110603;28;20698;-73
2022/05/16 07:04:04;;;;;;;6.82;2.95;;;27.10;89.40;;;;;;5112094;28;20206;-73
2022/05/16 07:06:30;;;;;;;4.68;2.53;;;27.20;89.10;;;;;;5110748;28;20212;-73
2022/05/16 07:08:56;;;;;;;4.90;2.72;;;27.10;88.40;;;;;;5111296;28;20209;-73
2022/05/16 07:11:21;;;;;;;10.52;3.40;;;26.70;88.30;;;;;;5112697;28;20213;-72
2022/05/16 07:13:47;;;;;;;5.03;2.40;;;27.20;88.50;;;;;;5112604;28;20198;-73
2022/05/16 07:16:12;;;;;;;5.53;2.25;;;26.90;89.30;;;;;;5105374;28;20572;-72
2022/05/16 07:18:38;;;;;;;6.47;2.75;;;27.00;88.40;;;;;;5109657;28;20233;-72
2022/05/16 07:21:04;;;;;;;5.15;2.80;;;28.40;87.00;;;;;;5094270;28;20282;-72
2022/05/16 07:23:30;;;;;;;5.47;2.60;;;27.90;85.20;;;;;;5101395;28;20357;-71
2022/05/16 07:28:40;;;;;;;5.18;2.42;;;29.40;84.30;;;;;;5110803;28;20217;-71
2022/05/16 07:31:06;;;;;;;6.07;2.90;;;27.90;83.20;;;;;;5111855;28;20210;-75
2022/05/16 07:33:31;;;;;;;5.57;2.80;;;27.20;84.40;;;;;;5111860;28;20213;-75
2022/05/16 07:35:57;;;;;;;5.60;2.38;;;26.90;84.80;;;;;;5111781;28;20231;-76
2022/05/16 07:38:25;;;;;;;6.68;2.75;;;27.00;86.90;;;;;;5110560;28;20170;-73
2022/05/16 07:40:51;;;;;;;6.97;2.50;;;27.90;85.20;;;;;;5110703;28;20263;-73
2022/05/16 07:43:18;;;;;;;4.68;2.75;;;28.80;84.30;;;;;;5111445;28;20204;-72
2022/05/16 07:45:44;;;;;;;5.93;2.00;;;27.20;84.30;;;;;;5104028;27;20233;-74
2022/05/16 07:48:09;;;;;;;5.97;2.67;;;27.90;84.80;;;;;;5110784;28;20208;-73
2022/05/16 07:50:36;;;;;;;5.63;2.50;;;27.30;85.30;;;;;;5111217;28;20205;-73
2022/05/16 07:53:04;;;;;;;3.92;2.28;;;27.60;84.70;;;;;;5110763;28;20185;-73
2022/05/16 07:55:30;;;;;;;7.03;2.63;;;27.70;84.30;;;;;;5111639;28;20198;-73
2022/05/16 07:57:56;;;;;;;7.03;2.30;;;27.20;85.40;;;;;;5111007;28;20558;-72
2022/05/16 08:00:23;;;;;;;6.65;2.58;;;27.60;84.80;;;;;;5110895;28;20221;-73
2022/05/16 08:02:50;;;;;;;6.60;2.72;;;27.90;84.60;;;;;;5111256;28;20205;-72
2022/05/16 08:05:17;;;;;;;7.05;2.55;;;28.30;83.20;;;;;;5111520;28;20182;-72
2022/05/16 08:10:31;;;;;;;7.25;2.60;;;27.00;83.80;;;;;;5110970;28;20719;-74
2022/05/16 08:13:02;;;;;;;7.80;2.65;;;27.10;84.90;;;;;;5110969;28;20197;-73
2022/05/16 08:15:29;;;;;;;8.30;2.22;;;27.70;85.50;;;;;;5103805;28;20201;-74
2022/05/16 08:17:55;;;;;;;5.95;2.63;;;28.10;83.50;;;;;;5110840;28;20269;-73
2022/05/16 08:20:20;;;;;;;6.45;2.50;;;27.60;83.20;;;;;;5109225;28;20205;-74
2022/05/16 08:22:46;;;;;;;3.45;2.50;;;28.00;84.30;;;;;;5102684;28;20202;-73
2022/05/16 08:25:13;;;;;;;9.05;3.00;;;28.30;82.60;;;;;;5109619;28;20198;-71
2022/05/16 08:27:39;;;;;;;6.68;2.72;;;28.50;82.40;;;;;;5110835;28;20206;-73
2022/05/16 08:30:05;;;;;;;4.68;2.75;;;27.10;83.30;;;;;;5108526;28;20271;-74
2022/05/16 08:32:30;;;;;;;6.25;2.60;;;27.10;84.90;;;;;;5107164;28;20170;-71
2022/05/16 08:35:04;;;;;;;4.85;2.50;;;27.60;83.20;;;;;;5115431;28;20181;-74
2022/05/16 08:40:15;;;;;;;8.63;2.70;;;27.20;84.50;;;;;;5114352;27;20723;-75
2022/05/16 08:42:51;;;;;;;5.35;2.67;;;27.40;84.10;;;;;;5113381;28;20213;-75
2022/05/16 08:45:28;;;;;;;5.65;3.20;;;27.40;84.20;;;;;;5107847;27;20207;-76
2022/05/16 08:47:58;;;;;;;6.97;2.45;;;27.40;84.00;;;;;;5114356;28;20213;-75
2022/05/16 08:50:41;;;;;;;7.03;2.30;;;27.30;83.90;;;;;;5113202;28;20217;-76
2022/05/16 08:53:16;;;;;;;4.63;2.17;;;26.80;84.60;;;;;;5114847;28;20240;-75
2022/05/16 08:55:48;;;;;;;6.13;2.58;;;26.40;84.20;;;;;;5114585;28;20205;-75
2022/05/16 08:58:22;;;;;;;5.05;2.47;;;26.30;85.10;;;;;;5112207;28;20216;-75
2022/05/16 09:01:05;;;;;;;7.18;2.55;;;27.10;86.20;;;;;;5112973;28;20677;-76
2022/05/16 09:03:56;;;;;;;7.32;3.10;;;27.10;84.50;;;;;;5114399;28;20224;-76
2022/05/16 09:06:47;;;;;;;6.57;3.05;;;27.30;84.60;;;;;;5114056;28;20696;-75
2022/05/16 09:09:14;;;;;;;7.03;2.42;;;27.60;85.20;;;;;;5113414;28;20205;-75
2022/05/16 09:11:46;;;;;;;9.23;2.58;;;27.20;83.90;;;;;;5114250;28;20674;-75
2022/05/16 09:14:47;;;;;;;5.35;2.55;;;27.00;84.70;;;;;;5108767;28;20209;-75
2022/05/16 09:17:29;;;;;;;3.28;2.38;;;27.40;84.80;;;;;;5105383;28;20205;-75
2022/05/16 09:20:04;;;;;;;6.90;2.70;;;27.50;85.00;;;;;;5113279;28;20217;-75
2022/05/16 09:22:50;;;;;;;6.28;2.30;;;27.00;85.20;;;;;;5113898;28;20714;-74
2022/05/16 09:25:28;;;;;;;8.93;2.72;;;26.80;86.50;;;;;;5114061;28;20201;-75
2022/05/16 09:30:47;;;;;;;5.88;2.58;;;26.70;86.60;;;;;;5113974;28;20216;-75
2022/05/16 09:33:24;;;;;;;8.45;2.13;;;26.30;86.70;;;;;;5113940;28;20205;-75
2022/05/16 09:36:09;;;;;;;5.25;2.60;;;26.60;87.50;;;;;;5113861;28;20255;-75
2022/05/16 09:38:34;;;;;;;5.18;2.65;;;26.20;87.10;;;;;;5112985;28;20185;-75
2022/05/16 09:41:08;;;;;;;9.02;2.30;;;26.20;87.30;;;;;;5113790;28;20299;-75
2022/05/16 09:43:42;;;;;;;6.15;2.60;;;26.70;87.80;;;;;;5113087;28;20198;-75
2022/05/16 09:46:41;;;;;;;6.85;2.20;;;26.10;87.90;;;;;;5099736;28;20201;-76
2022/05/16 09:49:09;;;;;;;5.95;2.60;;;26.40;88.00;;;;;;5107447;28;20217;-77
2022/05/16 09:52:02;;;;;;;4.72;2.25;;;27.00;87.20;;;;;;5113578;28;20213;-76
2022/05/16 09:54:35;;;;;;;6.53;4.45;;;26.50;86.40;;;;;;5109612;28;20198;-76
2022/05/16 09:57:04;;;;;;;5.65;2.10;;;25.90;86.10;;;;;;5110003;28;20225;-77
2022/05/16 09:59:58;;;;;;;10.18;2.42;;;25.70;87.20;;;;;;5112519;28;20207;-75
2022/05/16 10:02:25;;;;;;;6.00;2.17;;;25.50;87.70;;;;;;5109578;28;20190;-75
2022/05/16 10:05:21;;;;;;;5.35;2.35;;;24.90;87.80;;;;;;5113176;28;20202;-73
2022/05/16 10:07:50;;;;;;;7.72;2.53;;;25.10;88.50;;;;;;5110846;28;20197;-74
2022/05/16 10:10:20;;;;;;;6.18;2.72;;;25.10;88.20;;;;;;5112785;28;20259;-73
2022/05/16 10:12:46;;;;;;;7.90;2.22;;;24.90;88.10;;;;;;5113085;28;20288;-74
2022/05/16 10:15:13;;;;;;;5.50;2.67;;;24.80;89.10;;;;;;5105944;28;20570;-74
2022/05/16 10:17:40;;;;;;;5.07;1.70;;;25.20;88.80;;;;;;5111656;28;20259;-74
2022/05/16 10:20:16;;;;;;;4.32;1.90;;;25.10;87.10;;;;;;5111400;28;20208;-75
2022/05/16 10:22:42;;;;;;;5.47;2.70;;;25.50;86.80;;;;;;5112810;28;20201;-75
2022/05/16 10:25:13;;;;;;;3.40;1.77;;;25.50;86.30;;;;;;5112910;28;20193;-77
2022/05/16 10:27:40;;;;;;;5.70;2.10;;;25.90;85.80;;;;;;5112833;28;20205;-77
2022/05/16 10:30:20;;;;;;;5.40;2.15;;;26.40;85.10;;;;;;5112275;27;20202;-76
2022/05/16 10:35:43;;;;;;;2.92;2.10;;;26.10;85.90;;;;;;5112450;27;20685;-77
2022/05/16 10:38:25;;;;;;;2.13;1.45;;;26.10;85.90;;;;;;5111300;28;20177;-76
2022/05/16 10:40:58;;;;;;;4.82;1.90;;;26.00;85.20;;;;;;5111896;28;20220;-76
2022/05/16 10:43:40;;;;;;;7.47;1.80;;;25.90;84.30;;;;;;5112155;28;20198;-76
2022/05/16 10:46:12;;;;;;;6.70;1.70;;;25.80;85.10;;;;;;5091371;28;20687;-75
2022/05/16 10:48:47;;;;;;;3.72;2.08;;;26.10;84.10;;;;;;5090336;28;20207;-76
2022/05/16 10:51:28;;;;;;;3.10;1.70;;;25.90;84.50;;;;;;5109800;28;20213;-75
2022/05/16 10:54:33;;;;;;;5.40;2.13;;;25.60;84.40;;;;;;5111692;28;20677;-76
2022/05/16 10:57:07;;;;;;;3.83;1.80;;;25.10;85.40;;;;;;5069350;28;20214;-76
2022/05/16 11:00:00;;;;;;;3.42;1.67;;;25.40;85.60;;;;;;5068029;28;20595;-75
2022/05/16 11:02:42;;;;;;;5.07;2.17;;;25.20;85.10;;;;;;5100482;27;20215;-76
2022/05/16 11:05:40;;;;;;;8.20;2.33;;;25.20;84.70;;;;;;5112746;27;20201;-75
2022/05/16 11:08:34;;;;;;;3.70;1.92;;;25.30;85.30;;;;;;5111795;28;20202;-77
2022/05/16 11:11:06;;;;;;;3.95;2.03;;;25.30;85.20;;;;;;5113178;28;20213;-77
2022/05/16 11:14:02;;;;;;;3.10;1.63;;;25.10;84.80;;;;;;5112096;28;20749;-77
2022/05/16 11:16:32;;;;;;;5.32;1.80;;;25.20;85.80;;;;;;5106718;28;20201;-76
2022/05/16 11:19:36;;;;;;;6.68;1.95;;;25.30;85.30;;;;;;5108938;28;20625;-76
2022/05/16 11:22:13;;;;;;;4.15;2.42;;;25.00;85.90;;;;;;5112352;28;20732;-77
2022/05/16 11:25:02;;;;;;;3.85;1.98;;;25.10;85.80;;;;;;5110273;28;20209;-76
2022/05/16 11:27:46;;;;;;;5.13;1.65;;;25.30;85.70;;;;;;5110714;28;20219;-77
2022/05/16 11:30:44;;;;;;;2.88;1.85;;;25.90;85.00;;;;;;5111316;28;20248;-76
2022/05/16 11:33:21;;;;;;;5.03;2.00;;;26.10;84.30;;;;;;5103072;28;20205;-76
2022/05/16 11:35:50;;;;;;;5.30;1.85;;;25.70;83.50;;;;;;5111817;28;20217;-76
2022/05/16 11:39:06;;;;;;;4.88;1.95;;;25.60;84.00;;;;;;5111484;28;20158;-79
2022/05/16 11:41:58;;;;;;;5.72;2.00;;;25.80;82.90;;;;;;5014254;28;20338;-74
2022/05/16 11:44:41;;;;;;;4.97;1.95;;;25.60;82.30;;;;;;5025426;28;20516;-74
2022/05/16 11:47:26;;;;;;;3.63;2.03;;;25.50;83.60;;;;;;5091207;28;20197;-73
2022/05/16 11:50:05;;;;;;;4.57;3.72;;;25.40;83.00;;;;;;5110939;28;20209;-74
2022/05/16 11:52:55;;;;;;;5.80;2.75;;;25.70;83.60;;;;;;5111217;28;20588;-75
2022/05/16 12:01:00;;;;;;;4.53;2.05;;;25.60;83.10;;;;;;5111176;28;20211;-74
2022/05/16 12:03:44;;;;;;;3.08;1.48;;;25.40;82.50;;;;;;5109905;28;20312;-74
2022/05/16 12:06:26;;;;;;;4.20;2.05;;;26.00;83.10;;;;;;5110986;28;20213;-74
2022/05/16 12:09:15;;;;;;;4.40;1.85;;;25.70;82.40;;;;;;5110400;28;20209;-73
2022/05/16 12:11:51;;;;;;;4.00;2.13;;;25.40;82.50;;;;;;5111222;28;20169;-76
2022/05/16 12:14:32;;;;;;;7.53;2.03;;;25.50;82.80;;;;;;5111629;28;20202;-76
2022/05/16 12:17:19;;;;;;;8.25;2.95;;;25.20;83.00;;;;;;5098209;28;20221;-76
2022/05/16 12:19:48;;;;;;;3.75;1.85;;;25.50;83.70;;;;;;5110020;28;20208;-76
2022/05/16 12:22:21;;;;;;;3.92;2.15;;;25.90;83.70;;;;;;5109593;28;20212;-75
2022/05/16 12:24:52;;;;;;;4.53;2.00;;;25.80;81.60;;;;;;5110999;28;20197;-75
2022/05/16 12:27:29;;;;;;;5.90;2.05;;;25.50;80.90;;;;;;5110711;28;20208;-76
2022/05/16 12:29:58;;;;;;;7.65;3.10;;;25.20;80.60;;;;;;5110191;28;20219;-76
2022/05/16 12:32:29;;;;;;;5.20;3.13;;;25.40;80.40;;;;;;5111024;28;20197;-78
2022/05/16 12:35:15;;;;;;;5.55;3.08;;;25.30;80.30;;;;;;5104553;28;20198;-78
2022/05/16 12:37:41;;;;;;;6.53;2.80;;;25.20;81.30;;;;;;5109763;28;20670;-78
2022/05/16 12:40:16;;;;;;;4.22;2.70;;;25.10;81.10;;;;;;5110248;28;20236;-77
2022/05/16 12:43:20;;;;;;;5.15;2.30;;;25.10;81.00;;;;;;5111122;28;20204;-78
2022/05/16 12:46:27;;;;;;;5.65;2.63;;;25.20;81.00;;;;;;5103721;28;20204;-78
2022/05/16 12:49:31;;;;;;;8.07;4.95;;;25.10;80.40;;;;;;5100141;28;20827;-74
2022/05/16 12:52:09;;;;;;;7.85;3.90;;;25.20;80.50;;;;;;5107682;28;20625;-74
2022/05/16 12:54:46;;;;;;;8.70;3.90;;;25.10;80.80;;;;;;5110017;28;20598;-74
2022/05/16 12:57:21;;;;;;;6.45;4.05;;;25.10;81.40;;;;;;5108714;28;20231;-74
2022/05/16 13:00:05;;;;;;;5.50;3.35;;;24.70;81.60;;;;;;5109430;28;20299;-74
2022/05/16 13:02:41;;;;;;;4.95;3.50;;;24.80;80.90;;;;;;5109936;28;20189;-74
2022/05/16 13:05:36;;;;;;;10.60;4.40;;;24.70;81.30;;;;;;5110971;28;20257;-74
2022/05/16 13:08:05;;;;;;;5.78;4.60;;;24.90;81.70;;;;;;5110332;28;20210;-74
2022/05/16 13:10:34;;;;;;;6.25;4.53;;;24.80;80.20;;;;;;5110184;28;20217;-75
2022/05/16 13:13:38;;;;;;;10.80;4.22;;;24.80;80.00;;;;;;5110364;28;20208;-75
2022/05/16 13:16:07;;;;;;;9.43;5.53;;;24.90;79.00;;;;;;5103040;28;20694;-75
2022/05/16 13:18:39;;;;;;;8.25;5.22;;;25.20;79.00;;;;;;5111500;28;20216;-74
2022/05/16 13:21:14;;;;;;;10.75;4.43;;;25.30;79.30;;;;;;5113936;28;20209;-73
2022/05/16 13:23:40;;;;;;;6.00;4.25;;;25.40;79.20;;;;;;5114040;28;20177;-74
2022/05/16 13:31:44;;;;;;;6.10;3.80;;;25.40;79.00;;;;;;5114349;28;20220;-74
2022/05/16 13:34:12;;;;;;;9.00;4.10;;;25.30;77.60;;;;;;5114368;28;20204;-75
2022/05/16 13:36:42;;;;;;;6.82;4.45;;;25.40;78.20;;;;;;5113885;27;20213;-75
2022/05/16 13:39:12;;;;;;;4.82;4.13;;;25.30;77.90;;;;;;5113012;28;20209;-74
2022/05/16 13:41:38;;;;;;;6.97;4.63;;;25.30;78.10;;;;;;5112248;28;20616;-74
2022/05/16 13:44:05;;;;;;;5.72;3.70;;;25.40;78.10;;;;;;5111518;28;20222;-75
2022/05/16 13:46:34;;;;;;;6.22;4.47;;;25.50;78.00;;;;;;5109383;27;20197;-74
2022/05/16 13:49:07;;;;;;;4.93;3.40;;;25.60;77.50;;;;;;5113183;27;20215;-75
2022/05/16 13:51:44;;;;;;;7.53;4.47;;;25.50;76.50;;;;;;5113633;28;20205;-74